sensor_id;sensor_type;location;lat;lon;timestamp;temperature;humidity
1766;DHT22;880;52.452;8.656;2022-08-19T00:02:03;19.50;99.90
1766;DHT22;880;52.452;8.656;2022-08-19T00:04:33;19.50;99.90
1766;DHT22;880;52.452;8.656;2022-08-19T00:07:06;19.50;99.90
1766;DHT22;880;52.452;8.656;2022-08-19T00:09:33;19.50;99.90
1766;DHT22;880;52.452;8.656;2022-08-19T00:12:01;19.40;99.90
1766;DHT22;880;52.452;8.656;2022-08-19T00:14:29;19.30;99.90
1766;DHT22;880;52.452;8.656;2022-08-19T00:16:57;19.10;99.90
1766;DHT22;880;52.452;8.656;2022-08-19T00:19:24;18.90;99.90
1766;DHT22;880;52.452;8.656;2022-08-19T00:21:52;18.90;99.90
1766;DHT22;880;52.452;8.656;2022-08-19T00:24:19;18.90;99.90
1766;DHT22;880;52.452;8.656;2022-08-19T00:26:46;18.90;99.90
1766;DHT22;880;52.452;8.656;2022-08-19T00:29:16;18.90;99.90
1766;DHT22;880;52.452;8.656;2022-08-19T00:31:44;18.90;99.90
1766;DHT22;880;52.452;8.656;2022-08-19T00:34:13;18.90;99.90
1766;DHT22;880;52.452;8.656;2022-08-19T00:36:41;18.90;99.90
1766;DHT22;880;52.452;8.656;2022-08-19T00:39:09;18.80;99.90
1766;DHT22;880;52.452;8.656;2022-08-19T00:41:37;18.90;99.90
1766;DHT22;880;52.452;8.656;2022-08-19T00:46:44;18.90;99.90
1766;DHT22;880;52.452;8.656;2022-08-19T00:49:29;18.90;99.90
1766;DHT22;880;52.452;8.656;2022-08-19T00:52:08;18.90;99.90
1766;DHT22;880;52.452;8.656;2022-08-19T00:54:39;18.80;99.90
1766;DHT22;880;52.452;8.656;2022-08-19T00:57:10;18.80;99.90
1766;DHT22;880;52.452;8.656;2022-08-19T00:59:40;18.80;99.90
1766;DHT22;880;52.452;8.656;2022-08-19T01:02:27;18.80;99.90
1766;DHT22;880;52.452;8.656;2022-08-19T01:04:55;18.70;99.90
1766;DHT22;880;52.452;8.656;2022-08-19T01:07:22;18.70;99.90
1766;DHT22;880;52.452;8.656;2022-08-19T01:09:49;18.70;99.90
1766;DHT22;880;52.452;8.656;2022-08-19T01:12:17;18.70;99.90
1766;DHT22;880;52.452;8.656;2022-08-19T01:14:46;18.60;99.90
1766;DHT22;880;52.452;8.656;2022-08-19T01:17:15;18.50;99.90
1766;DHT22;880;52.452;8.656;2022-08-19T01:19:43;18.50;99.90
1766;DHT22;880;52.452;8.656;2022-08-19T01:22:30;18.40;99.90
1766;DHT22;880;52.452;8.656;2022-08-19T01:25:00;18.50;99.90
1766;DHT22;880;52.452;8.656;2022-08-19T01:27:41;18.50;99.90
1766;DHT22;880;52.452;8.656;2022-08-19T01:30:18;18.40;99.90
1766;DHT22;880;52.452;8.656;2022-08-19T01:32:51;18.40;99.90
1766;DHT22;880;52.452;8.656;2022-08-19T01:35:21;18.30;99.90
1766;DHT22;880;52.452;8.656;2022-08-19T01:37:51;18.30;99.90
1766;DHT22;880;52.452;8.656;2022-08-19T01:40:25;18.30;99.90
1766;DHT22;880;52.452;8.656;2022-08-19T01:42:55;18.30;99.90
1766;DHT22;880;52.452;8.656;2022-08-19T01:45:24;18.30;99.90
1766;DHT22;880;52.452;8.656;2022-08-19T01:47:53;18.30;99.90
1766;DHT22;880;52.452;8.656;2022-08-19T01:50:30;18.30;99.90
1766;DHT22;880;52.452;8.656;2022-08-19T01:52:58;18.20;99.90
1766;DHT22;880;52.452;8.656;2022-08-19T01:55:33;18.10;99.90
1766;DHT22;880;52.452;8.656;2022-08-19T01:58:09;18.00;99.90
1766;DHT22;880;52.452;8.656;2022-08-19T02:00:39;18.00;99.90
1766;DHT22;880;52.452;8.656;2022-08-19T02:03:06;18.00;99.90
1766;DHT22;880;52.452;8.656;2022-08-19T02:05:36;18.00;99.90
1766;DHT22;880;52.452;8.656;2022-08-19T02:08:03;17.90;99.90
1766;DHT22;880;52.452;8.656;2022-08-19T02:10:30;18.00;99.90
1766;DHT22;880;52.452;8.656;2022-08-19T02:12:58;18.10;99.90
1766;DHT22;880;52.452;8.656;2022-08-19T02:15:25;18.10;99.90
1766;DHT22;880;52.452;8.656;2022-08-19T02:17:52;18.10;99.90
1766;DHT22;880;52.452;8.656;2022-08-19T02:20:19;18.00;99.90
1766;DHT22;880;52.452;8.656;2022-08-19T02:22:46;18.00;99.90
1766;DHT22;880;52.452;8.656;2022-08-19T02:25:14;17.90;99.90
1766;DHT22;880;52.452;8.656;2022-08-19T02:27:42;17.90;99.90
1766;DHT22;880;52.452;8.656;2022-08-19T02:30:14;17.90;99.90
1766;DHT22;880;52.452;8.656;2022-08-19T02:32:43;17.90;99.90
1766;DHT22;880;52.452;8.656;2022-08-19T02:35:12;17.90;99.90
1766;DHT22;880;52.452;8.656;2022-08-19T02:37:41;17.80;99.90
1766;DHT22;880;52.452;8.656;2022-08-19T02:40:29;17.80;99.90
1766;DHT22;880;52.452;8.656;2022-08-19T02:42:58;17.80;99.90
1766;DHT22;880;52.452;8.656;2022-08-19T02:45:25;17.80;99.90
1766;DHT22;880;52.452;8.656;2022-08-19T02:47:52;17.70;99.90
1766;DHT22;880;52.452;8.656;2022-08-19T02:50:19;17.70;99.90
1766;DHT22;880;52.452;8.656;2022-08-19T02:52:46;17.70;99.90
1766;DHT22;880;52.452;8.656;2022-08-19T02:55:13;17.70;99.90
1766;DHT22;880;52.452;8.656;2022-08-19T02:57:40;17.70;99.90
1766;DHT22;880;52.452;8.656;2022-08-19T03:00:08;17.60;99.90
1766;DHT22;880;52.452;8.656;2022-08-19T03:02:40;17.60;99.90
1766;DHT22;880;52.452;8.656;2022-08-19T03:05:08;17.50;99.90
1766;DHT22;880;52.452;8.656;2022-08-19T03:07:36;17.50;99.90
1766;DHT22;880;52.452;8.656;2022-08-19T03:10:04;17.40;99.90
1766;DHT22;880;52.452;8.656;2022-08-19T03:12:35;17.40;99.90
1766;DHT22;880;52.452;8.656;2022-08-19T03:15:07;17.30;99.90
1766;DHT22;880;52.452;8.656;2022-08-19T03:17:35;17.30;99.90
1766;DHT22;880;52.452;8.656;2022-08-19T03:20:03;17.20;99.90
1766;DHT22;880;52.452;8.656;2022-08-19T03:22:31;17.20;99.90
1766;DHT22;880;52.452;8.656;2022-08-19T03:24:58;17.10;99.90
1766;DHT22;880;52.452;8.656;2022-08-19T03:27:25;17.10;99.90
1766;DHT22;880;52.452;8.656;2022-08-19T03:30:00;17.10;99.90
1766;DHT22;880;52.452;8.656;2022-08-19T03:32:27;17.20;99.90
1766;DHT22;880;52.452;8.656;2022-08-19T03:34:58;17.20;99.90
1766;DHT22;880;52.452;8.656;2022-08-19T03:37:25;17.20;99.90
1766;DHT22;880;52.452;8.656;2022-08-19T03:39:53;17.30;99.90
1766;DHT22;880;52.452;8.656;2022-08-19T03:42:19;17.20;99.90
1766;DHT22;880;52.452;8.656;2022-08-19T03:45:07;17.20;99.90
1766;DHT22;880;52.452;8.656;2022-08-19T03:47:34;17.20;99.90
1766;DHT22;880;52.452;8.656;2022-08-19T03:50:01;17.20;99.90
1766;DHT22;880;52.452;8.656;2022-08-19T03:52:28;17.10;99.90
1766;DHT22;880;52.452;8.656;2022-08-19T03:54:56;17.20;99.90
1766;DHT22;880;52.452;8.656;2022-08-19T03:57:23;17.20;99.90
1766;DHT22;880;52.452;8.656;2022-08-19T03:59:58;17.20;99.90
1766;DHT22;880;52.452;8.656;2022-08-19T04:02:40;17.20;99.90
1766;DHT22;880;52.452;8.656;2022-08-19T04:05:23;17.20;99.90
1766;DHT22;880;52.452;8.656;2022-08-19T04:07:53;17.10;99.90
1766;DHT22;880;52.452;8.656;2022-08-19T04:10:21;17.10;99.90
1766;DHT22;880;52.452;8.656;2022-08-19T04:12:48;17.10;99.90
1766;DHT22;880;52.452;8.656;2022-08-19T04:15:16;17.10;99.90
1766;DHT22;880;52.452;8.656;2022-08-19T04:17:43;17.10;99.90
1766;DHT22;880;52.452;8.656;2022-08-19T04:20:10;17.10;99.90
1766;DHT22;880;52.452;8.656;2022-08-19T04:22:37;17.10;99.90
1766;DHT22;880;52.452;8.656;2022-08-19T04:25:05;17.10;99.90
1766;DHT22;880;52.452;8.656;2022-08-19T04:27:32;17.10;99.90
1766;DHT22;880;52.452;8.656;2022-08-19T04:30:00;17.00;99.90
1766;DHT22;880;52.452;8.656;2022-08-19T04:32:26;17.00;99.90
1766;DHT22;880;52.452;8.656;2022-08-19T04:34:53;17.00;99.90
1766;DHT22;880;52.452;8.656;2022-08-19T04:37:42;16.90;99.90
1766;DHT22;880;52.452;8.656;2022-08-19T04:40:09;16.90;99.90
1766;DHT22;880;52.452;8.656;2022-08-19T04:42:55;16.90;99.90
1766;DHT22;880;52.452;8.656;2022-08-19T04:45:22;17.00;99.90
1766;DHT22;880;52.452;8.656;2022-08-19T04:47:49;17.00;99.90
1766;DHT22;880;52.452;8.656;2022-08-19T04:50:43;17.10;99.90
1766;DHT22;880;52.452;8.656;2022-08-19T04:53:10;17.00;99.90
1766;DHT22;880;52.452;8.656;2022-08-19T04:55:41;17.10;99.90
1766;DHT22;880;52.452;8.656;2022-08-19T04:58:08;17.20;99.90
1766;DHT22;880;52.452;8.656;2022-08-19T05:00:38;17.20;99.90
1766;DHT22;880;52.452;8.656;2022-08-19T05:03:07;17.30;99.90
1766;DHT22;880;52.452;8.656;2022-08-19T05:05:39;17.20;99.90
1766;DHT22;880;52.452;8.656;2022-08-19T05:08:12;17.10;99.90
1766;DHT22;880;52.452;8.656;2022-08-19T05:10:41;17.00;99.90
1766;DHT22;880;52.452;8.656;2022-08-19T05:13:08;17.00;99.90
1766;DHT22;880;52.452;8.656;2022-08-19T05:15:38;17.00;99.90
1766;DHT22;880;52.452;8.656;2022-08-19T05:18:04;17.00;99.90
1766;DHT22;880;52.452;8.656;2022-08-19T05:20:50;17.10;99.90
1766;DHT22;880;52.452;8.656;2022-08-19T05:23:36;17.20;99.90
1766;DHT22;880;52.452;8.656;2022-08-19T05:26:03;17.20;99.90
1766;DHT22;880;52.452;8.656;2022-08-19T05:28:30;17.20;99.90
1766;DHT22;880;52.452;8.656;2022-08-19T05:30:58;17.30;99.90
1766;DHT22;880;52.452;8.656;2022-08-19T05:33:24;17.30;99.90
1766;DHT22;880;52.452;8.656;2022-08-19T05:35:51;17.40;99.90
1766;DHT22;880;52.452;8.656;2022-08-19T05:38:19;17.50;99.90
1766;DHT22;880;52.452;8.656;2022-08-19T05:40:46;17.50;99.90
1766;DHT22;880;52.452;8.656;2022-08-19T05:43:15;17.50;99.90
1766;DHT22;880;52.452;8.656;2022-08-19T05:45:43;17.60;99.90
1766;DHT22;880;52.452;8.656;2022-08-19T05:48:11;17.60;99.90
1766;DHT22;880;52.452;8.656;2022-08-19T05:50:40;17.70;99.90
1766;DHT22;880;52.452;8.656;2022-08-19T05:53:08;17.80;99.90
1766;DHT22;880;52.452;8.656;2022-08-19T05:55:35;18.00;99.90
1766;DHT22;880;52.452;8.656;2022-08-19T05:58:04;18.00;99.90
1766;DHT22;880;52.452;8.656;2022-08-19T06:00:35;18.10;99.90
1766;DHT22;880;52.452;8.656;2022-08-19T06:03:04;18.20;99.90
1766;DHT22;880;52.452;8.656;2022-08-19T06:05:38;18.30;99.90
1766;DHT22;880;52.452;8.656;2022-08-19T06:08:17;18.20;99.90
1766;DHT22;880;52.452;8.656;2022-08-19T06:10:44;18.10;99.90
1766;DHT22;880;52.452;8.656;2022-08-19T06:13:11;18.20;99.90
1766;DHT22;880;52.452;8.656;2022-08-19T06:15:38;18.30;99.90
1766;DHT22;880;52.452;8.656;2022-08-19T06:18:07;18.40;99.90
1766;DHT22;880;52.452;8.656;2022-08-19T06:20:34;18.40;99.90
1766;DHT22;880;52.452;8.656;2022-08-19T06:23:21;18.40;99.90
1766;DHT22;880;52.452;8.656;2022-08-19T06:25:50;18.40;99.90
1766;DHT22;880;52.452;8.656;2022-08-19T06:28:17;18.30;99.90
1766;DHT22;880;52.452;8.656;2022-08-19T06:30:44;18.40;99.90
1766;DHT22;880;52.452;8.656;2022-08-19T06:33:11;18.50;99.90
1766;DHT22;880;52.452;8.656;2022-08-19T06:35:40;18.50;99.90
1766;DHT22;880;52.452;8.656;2022-08-19T06:38:08;18.70;99.90
1766;DHT22;880;52.452;8.656;2022-08-19T06:40:36;18.80;99.90
1766;DHT22;880;52.452;8.656;2022-08-19T06:43:04;19.00;99.90
1766;DHT22;880;52.452;8.656;2022-08-19T06:45:36;19.00;99.90
1766;DHT22;880;52.452;8.656;2022-08-19T06:48:05;19.10;99.90
1766;DHT22;880;52.452;8.656;2022-08-19T06:50:33;19.00;99.90
1766;DHT22;880;52.452;8.656;2022-08-19T06:53:02;19.00;99.90
1766;DHT22;880;52.452;8.656;2022-08-19T06:55:30;19.20;99.90
1766;DHT22;880;52.452;8.656;2022-08-19T06:58:02;19.20;99.90
1766;DHT22;880;52.452;8.656;2022-08-19T07:00:30;19.20;99.90
1766;DHT22;880;52.452;8.656;2022-08-19T07:03:02;19.20;99.90
1766;DHT22;880;52.452;8.656;2022-08-19T07:05:41;19.20;99.90
1766;DHT22;880;52.452;8.656;2022-08-19T07:08:12;19.20;99.90
1766;DHT22;880;52.452;8.656;2022-08-19T07:10:43;19.20;99.90
1766;DHT22;880;52.452;8.656;2022-08-19T07:13:11;19.20;99.90
1766;DHT22;880;52.452;8.656;2022-08-19T07:15:38;19.30;99.90
1766;DHT22;880;52.452;8.656;2022-08-19T07:18:05;19.20;99.90
1766;DHT22;880;52.452;8.656;2022-08-19T07:20:37;19.30;99.90
1766;DHT22;880;52.452;8.656;2022-08-19T07:23:07;19.30;99.90
1766;DHT22;880;52.452;8.656;2022-08-19T07:25:37;19.40;99.90
1766;DHT22;880;52.452;8.656;2022-08-19T07:28:06;19.50;99.90
1766;DHT22;880;52.452;8.656;2022-08-19T07:30:50;19.50;99.90
1766;DHT22;880;52.452;8.656;2022-08-19T07:33:18;19.70;99.90
1766;DHT22;880;52.452;8.656;2022-08-19T07:35:45;20.00;99.90
1766;DHT22;880;52.452;8.656;2022-08-19T07:38:12;20.20;99.90
1766;DHT22;880;52.452;8.656;2022-08-19T07:40:39;20.40;99.90
1766;DHT22;880;52.452;8.656;2022-08-19T07:43:09;20.60;99.90
1766;DHT22;880;52.452;8.656;2022-08-19T07:45:42;20.90;99.90
1766;DHT22;880;52.452;8.656;2022-08-19T07:48:09;20.90;99.90
1766;DHT22;880;52.452;8.656;2022-08-19T07:50:37;20.80;99.90
1766;DHT22;880;52.452;8.656;2022-08-19T07:53:04;21.00;99.90
1766;DHT22;880;52.452;8.656;2022-08-19T07:55:31;21.20;99.90
1766;DHT22;880;52.452;8.656;2022-08-19T07:58:10;21.20;99.90
1766;DHT22;880;52.452;8.656;2022-08-19T08:00:38;21.20;99.90
1766;DHT22;880;52.452;8.656;2022-08-19T08:03:05;21.30;99.90
1766;DHT22;880;52.452;8.656;2022-08-19T08:05:32;21.60;99.90
1766;DHT22;880;52.452;8.656;2022-08-19T08:08:18;21.90;99.90
1766;DHT22;880;52.452;8.656;2022-08-19T08:11:15;22.00;99.90
1766;DHT22;880;52.452;8.656;2022-08-19T08:13:46;22.30;99.90
1766;DHT22;880;52.452;8.656;2022-08-19T08:16:33;22.40;99.90
1766;DHT22;880;52.452;8.656;2022-08-19T08:19:05;22.30;99.90
1766;DHT22;880;52.452;8.656;2022-08-19T08:21:49;22.30;99.90
1766;DHT22;880;52.452;8.656;2022-08-19T08:24:17;22.40;99.90
1766;DHT22;880;52.452;8.656;2022-08-19T08:26:44;22.60;99.90
1766;DHT22;880;52.452;8.656;2022-08-19T08:29:17;22.70;99.90
1766;DHT22;880;52.452;8.656;2022-08-19T08:31:46;23.00;99.90
1766;DHT22;880;52.452;8.656;2022-08-19T08:34:24;23.00;99.90
1766;DHT22;880;52.452;8.656;2022-08-19T08:36:51;23.00;99.90
1766;DHT22;880;52.452;8.656;2022-08-19T08:39:20;23.20;99.90
1766;DHT22;880;52.452;8.656;2022-08-19T08:42:07;23.60;99.90
1766;DHT22;880;52.452;8.656;2022-08-19T08:44:47;23.80;99.90
1766;DHT22;880;52.452;8.656;2022-08-19T08:47:32;23.90;99.90
1766;DHT22;880;52.452;8.656;2022-08-19T08:50:08;24.10;99.90
1766;DHT22;880;52.452;8.656;2022-08-19T08:52:50;24.30;99.90
1766;DHT22;880;52.452;8.656;2022-08-19T08:55:25;24.30;99.90
1766;DHT22;880;52.452;8.656;2022-08-19T08:58:12;24.40;99.90
1766;DHT22;880;52.452;8.656;2022-08-19T09:00:45;24.50;99.90
1766;DHT22;880;52.452;8.656;2022-08-19T09:03:26;24.70;99.90
1766;DHT22;880;52.452;8.656;2022-08-19T09:06:03;24.90;99.90
1766;DHT22;880;52.452;8.656;2022-08-19T09:08:54;24.90;99.90
1766;DHT22;880;52.452;8.656;2022-08-19T09:11:41;25.20;99.90
1766;DHT22;880;52.452;8.656;2022-08-19T09:17:18;25.40;99.90
1766;DHT22;880;52.452;8.656;2022-08-19T09:19:56;25.50;99.90
1766;DHT22;880;52.452;8.656;2022-08-19T09:22:27;25.40;99.90
1766;DHT22;880;52.452;8.656;2022-08-19T09:24:54;25.40;99.90
1766;DHT22;880;52.452;8.656;2022-08-19T09:27:23;25.30;99.90
1766;DHT22;880;52.452;8.656;2022-08-19T09:30:12;25.30;99.90
1766;DHT22;880;52.452;8.656;2022-08-19T09:32:42;25.40;99.90
1766;DHT22;880;52.452;8.656;2022-08-19T09:35:10;25.50;99.90
1766;DHT22;880;52.452;8.656;2022-08-19T09:37:39;25.70;99.90
1766;DHT22;880;52.452;8.656;2022-08-19T09:40:07;26.10;99.90
1766;DHT22;880;52.452;8.656;2022-08-19T09:42:37;26.30;99.90
1766;DHT22;880;52.452;8.656;2022-08-19T09:45:19;26.40;99.90
1766;DHT22;880;52.452;8.656;2022-08-19T09:47:49;26.50;99.90
1766;DHT22;880;52.452;8.656;2022-08-19T09:50:21;26.70;99.90
1766;DHT22;880;52.452;8.656;2022-08-19T09:52:50;26.50;99.90
1766;DHT22;880;52.452;8.656;2022-08-19T09:55:24;26.40;99.90
1766;DHT22;880;52.452;8.656;2022-08-19T09:57:59;26.40;99.90
1766;DHT22;880;52.452;8.656;2022-08-19T10:00:27;26.50;99.90
1766;DHT22;880;52.452;8.656;2022-08-19T10:02:54;26.60;99.90
1766;DHT22;880;52.452;8.656;2022-08-19T10:05:22;26.60;99.90
1766;DHT22;880;52.452;8.656;2022-08-19T10:08:09;26.70;99.90
1766;DHT22;880;52.452;8.656;2022-08-19T10:10:43;26.70;99.50
1766;DHT22;880;52.452;8.656;2022-08-19T10:13:14;26.20;99.90
1766;DHT22;880;52.452;8.656;2022-08-19T10:15:43;26.00;99.90
1766;DHT22;880;52.452;8.656;2022-08-19T10:18:13;26.10;99.90
1766;DHT22;880;52.452;8.656;2022-08-19T10:20:46;26.30;99.90
1766;DHT22;880;52.452;8.656;2022-08-19T10:23:18;26.70;99.70
1766;DHT22;880;52.452;8.656;2022-08-19T10:25:47;27.00;98.90
1766;DHT22;880;52.452;8.656;2022-08-19T10:28:15;27.20;98.60
1766;DHT22;880;52.452;8.656;2022-08-19T10:30:45;27.40;97.00
1766;DHT22;880;52.452;8.656;2022-08-19T10:33:13;27.30;96.70
1766;DHT22;880;52.452;8.656;2022-08-19T10:36:07;27.30;96.90
1766;DHT22;880;52.452;8.656;2022-08-19T10:38:46;27.70;97.10
1766;DHT22;880;52.452;8.656;2022-08-19T10:41:23;28.00;95.40
1766;DHT22;880;52.452;8.656;2022-08-19T10:43:53;28.00;93.60
1766;DHT22;880;52.452;8.656;2022-08-19T10:46:22;28.30;93.90
1766;DHT22;880;52.452;8.656;2022-08-19T10:48:51;28.70;93.30
1766;DHT22;880;52.452;8.656;2022-08-19T10:51:19;28.90;92.80
1766;DHT22;880;52.452;8.656;2022-08-19T10:54:14;29.00;91.70
1766;DHT22;880;52.452;8.656;2022-08-19T10:56:41;29.10;91.10
1766;DHT22;880;52.452;8.656;2022-08-19T10:59:23;29.00;90.90
1766;DHT22;880;52.452;8.656;2022-08-19T11:01:53;29.10;87.80
1766;DHT22;880;52.452;8.656;2022-08-19T11:04:23;29.10;85.70
1766;DHT22;880;52.452;8.656;2022-08-19T11:06:55;29.10;83.80
1766;DHT22;880;52.452;8.656;2022-08-19T11:09:24;29.20;85.70
1766;DHT22;880;52.452;8.656;2022-08-19T11:11:59;29.50;84.80
1766;DHT22;880;52.452;8.656;2022-08-19T11:14:30;29.60;82.10
1766;DHT22;880;52.452;8.656;2022-08-19T11:17:00;29.80;81.00
1766;DHT22;880;52.452;8.656;2022-08-19T11:19:28;29.80;78.40
1766;DHT22;880;52.452;8.656;2022-08-19T11:21:55;29.80;79.60
1766;DHT22;880;52.452;8.656;2022-08-19T11:24:25;29.80;80.40
1766;DHT22;880;52.452;8.656;2022-08-19T11:26:58;29.90;78.70
1766;DHT22;880;52.452;8.656;2022-08-19T11:29:29;29.90;78.70
1766;DHT22;880;52.452;8.656;2022-08-19T11:31:57;29.90;79.60
1766;DHT22;880;52.452;8.656;2022-08-19T11:34:26;29.90;79.10
1766;DHT22;880;52.452;8.656;2022-08-19T11:36:55;29.90;78.20
1766;DHT22;880;52.452;8.656;2022-08-19T11:39:29;29.90;76.70
1766;DHT22;880;52.452;8.656;2022-08-19T11:42:00;30.00;79.80
1766;DHT22;880;52.452;8.656;2022-08-19T11:44:48;30.30;80.50
1766;DHT22;880;52.452;8.656;2022-08-19T11:47:15;30.40;80.50
1766;DHT22;880;52.452;8.656;2022-08-19T11:49:42;30.50;79.70
1766;DHT22;880;52.452;8.656;2022-08-19T11:52:09;30.50;79.50
1766;DHT22;880;52.452;8.656;2022-08-19T11:54:37;30.50;80.00
1766;DHT22;880;52.452;8.656;2022-08-19T11:57:04;30.60;79.50
1766;DHT22;880;52.452;8.656;2022-08-19T11:59:31;30.50;78.30
1766;DHT22;880;52.452;8.656;2022-08-19T12:01:58;30.20;79.20
1766;DHT22;880;52.452;8.656;2022-08-19T12:04:25;30.30;79.50
1766;DHT22;880;52.452;8.656;2022-08-19T12:06:52;30.50;75.40
1766;DHT22;880;52.452;8.656;2022-08-19T12:09:19;30.10;76.90
1766;DHT22;880;52.452;8.656;2022-08-19T12:11:48;29.80;76.90
1766;DHT22;880;52.452;8.656;2022-08-19T12:14:17;29.70;78.80
1766;DHT22;880;52.452;8.656;2022-08-19T12:16:45;29.80;77.00
1766;DHT22;880;52.452;8.656;2022-08-19T12:19:18;29.80;76.90
1766;DHT22;880;52.452;8.656;2022-08-19T12:21:48;29.90;75.30
1766;DHT22;880;52.452;8.656;2022-08-19T12:24:15;29.90;74.00
1766;DHT22;880;52.452;8.656;2022-08-19T12:26:47;30.00;74.40
1766;DHT22;880;52.452;8.656;2022-08-19T12:29:20;30.30;74.60
1766;DHT22;880;52.452;8.656;2022-08-19T12:31:50;30.70;73.40
1766;DHT22;880;52.452;8.656;2022-08-19T12:34:17;30.90;73.20
1766;DHT22;880;52.452;8.656;2022-08-19T12:36:46;31.10;73.90
1766;DHT22;880;52.452;8.656;2022-08-19T12:39:16;31.30;72.50
1766;DHT22;880;52.452;8.656;2022-08-19T12:41:43;31.30;69.80
1766;DHT22;880;52.452;8.656;2022-08-19T12:44:20;31.40;69.20
1766;DHT22;880;52.452;8.656;2022-08-19T12:46:55;31.50;70.60
1766;DHT22;880;52.452;8.656;2022-08-19T12:49:23;31.50;69.70
1766;DHT22;880;52.452;8.656;2022-08-19T12:52:17;31.50;68.70
1766;DHT22;880;52.452;8.656;2022-08-19T12:54:48;31.50;69.20
1766;DHT22;880;52.452;8.656;2022-08-19T12:57:27;31.40;69.80
1766;DHT22;880;52.452;8.656;2022-08-19T12:59:58;31.50;69.40
1766;DHT22;880;52.452;8.656;2022-08-19T13:02:26;31.60;70.30
1766;DHT22;880;52.452;8.656;2022-08-19T13:04:53;31.60;67.90
1766;DHT22;880;52.452;8.656;2022-08-19T13:07:20;31.40;68.70
1766;DHT22;880;52.452;8.656;2022-08-19T13:09:51;31.50;68.20
1766;DHT22;880;52.452;8.656;2022-08-19T13:12:19;31.50;66.00
1766;DHT22;880;52.452;8.656;2022-08-19T13:14:50;31.50;66.90
1766;DHT22;880;52.452;8.656;2022-08-19T13:17:19;31.50;67.90
1766;DHT22;880;52.452;8.656;2022-08-19T13:19:46;31.70;69.00
1766;DHT22;880;52.452;8.656;2022-08-19T13:22:13;31.70;67.50
1766;DHT22;880;52.452;8.656;2022-08-19T13:24:41;31.50;69.10
1766;DHT22;880;52.452;8.656;2022-08-19T13:27:12;31.60;69.60
1766;DHT22;880;52.452;8.656;2022-08-19T13:29:42;31.60;69.40
1766;DHT22;880;52.452;8.656;2022-08-19T13:32:29;31.70;69.60
1766;DHT22;880;52.452;8.656;2022-08-19T13:35:16;31.80;70.50
1766;DHT22;880;52.452;8.656;2022-08-19T13:37:43;32.00;68.90
1766;DHT22;880;52.452;8.656;2022-08-19T13:40:17;32.00;68.30
1766;DHT22;880;52.452;8.656;2022-08-19T13:42:48;32.00;69.00
1766;DHT22;880;52.452;8.656;2022-08-19T13:45:19;31.70;67.30
1766;DHT22;880;52.452;8.656;2022-08-19T13:47:56;31.30;69.30
1766;DHT22;880;52.452;8.656;2022-08-19T13:50:29;31.10;69.10
1766;DHT22;880;52.452;8.656;2022-08-19T13:52:58;31.10;69.00
1766;DHT22;880;52.452;8.656;2022-08-19T13:55:25;31.00;69.30
1766;DHT22;880;52.452;8.656;2022-08-19T13:57:57;31.00;69.30
1766;DHT22;880;52.452;8.656;2022-08-19T14:00:27;31.10;71.00
1766;DHT22;880;52.452;8.656;2022-08-19T14:02:56;31.20;71.30
1766;DHT22;880;52.452;8.656;2022-08-19T14:05:25;31.50;70.50
1766;DHT22;880;52.452;8.656;2022-08-19T14:07:54;31.50;69.40
1766;DHT22;880;52.452;8.656;2022-08-19T14:10:22;31.60;69.20
1766;DHT22;880;52.452;8.656;2022-08-19T14:12:59;31.70;68.80
1766;DHT22;880;52.452;8.656;2022-08-19T14:15:28;31.60;69.30
1766;DHT22;880;52.452;8.656;2022-08-19T14:17:56;31.60;70.10
1766;DHT22;880;52.452;8.656;2022-08-19T14:20:23;31.50;69.90
1766;DHT22;880;52.452;8.656;2022-08-19T14:22:52;31.20;69.40
1766;DHT22;880;52.452;8.656;2022-08-19T14:25:27;31.00;70.50
1766;DHT22;880;52.452;8.656;2022-08-19T14:27:55;30.70;70.10
1766;DHT22;880;52.452;8.656;2022-08-19T14:30:29;30.70;71.30
1766;DHT22;880;52.452;8.656;2022-08-19T14:32:59;30.70;71.10
1766;DHT22;880;52.452;8.656;2022-08-19T14:35:29;30.60;70.60
1766;DHT22;880;52.452;8.656;2022-08-19T14:38:04;30.50;71.80
1766;DHT22;880;52.452;8.656;2022-08-19T14:40:32;30.60;72.10
1766;DHT22;880;52.452;8.656;2022-08-19T14:43:01;30.50;70.80
1766;DHT22;880;52.452;8.656;2022-08-19T14:45:35;30.40;71.90
1766;DHT22;880;52.452;8.656;2022-08-19T14:48:05;30.50;72.80
1766;DHT22;880;52.452;8.656;2022-08-19T14:50:44;30.90;73.10
1766;DHT22;880;52.452;8.656;2022-08-19T14:53:11;30.90;70.10
1766;DHT22;880;52.452;8.656;2022-08-19T14:55:45;30.70;71.60
1766;DHT22;880;52.452;8.656;2022-08-19T14:58:13;30.50;71.10
1766;DHT22;880;52.452;8.656;2022-08-19T15:00:57;30.10;71.70
1766;DHT22;880;52.452;8.656;2022-08-19T15:03:25;29.90;72.90
1766;DHT22;880;52.452;8.656;2022-08-19T15:05:53;29.70;73.50
1766;DHT22;880;52.452;8.656;2022-08-19T15:08:20;29.60;74.00
1766;DHT22;880;52.452;8.656;2022-08-19T15:10:48;29.60;74.40
1766;DHT22;880;52.452;8.656;2022-08-19T15:13:16;29.70;74.40
1766;DHT22;880;52.452;8.656;2022-08-19T15:15:43;29.80;75.00
1766;DHT22;880;52.452;8.656;2022-08-19T15:18:09;29.90;74.90
1766;DHT22;880;52.452;8.656;2022-08-19T15:20:38;30.10;74.70
1766;DHT22;880;52.452;8.656;2022-08-19T15:23:07;30.10;72.30
1766;DHT22;880;52.452;8.656;2022-08-19T15:25:34;30.20;73.40
1766;DHT22;880;52.452;8.656;2022-08-19T15:28:03;30.30;72.10
1766;DHT22;880;52.452;8.656;2022-08-19T15:30:30;30.20;71.70
1766;DHT22;880;52.452;8.656;2022-08-19T15:32:59;30.40;73.40
1766;DHT22;880;52.452;8.656;2022-08-19T15:35:27;30.70;70.90
1766;DHT22;880;52.452;8.656;2022-08-19T15:37:54;30.80;70.40
1766;DHT22;880;52.452;8.656;2022-08-19T15:40:23;30.80;69.60
1766;DHT22;880;52.452;8.656;2022-08-19T15:42:52;30.80;68.60
1766;DHT22;880;52.452;8.656;2022-08-19T15:45:20;30.80;68.00
1766;DHT22;880;52.452;8.656;2022-08-19T15:47:48;30.70;69.10
1766;DHT22;880;52.452;8.656;2022-08-19T15:50:18;30.80;68.70
1766;DHT22;880;52.452;8.656;2022-08-19T15:52:58;30.70;68.10
1766;DHT22;880;52.452;8.656;2022-08-19T15:55:29;30.70;67.30
1766;DHT22;880;52.452;8.656;2022-08-19T15:58:03;30.70;67.80
1766;DHT22;880;52.452;8.656;2022-08-19T16:01:06;30.50;68.50
1766;DHT22;880;52.452;8.656;2022-08-19T16:03:54;30.50;69.40
1766;DHT22;880;52.452;8.656;2022-08-19T16:06:50;30.60;69.10
1766;DHT22;880;52.452;8.656;2022-08-19T16:09:20;30.60;68.30
1766;DHT22;880;52.452;8.656;2022-08-19T16:12:02;30.60;68.70
1766;DHT22;880;52.452;8.656;2022-08-19T16:14:33;30.50;69.40
1766;DHT22;880;52.452;8.656;2022-08-19T16:17:01;30.60;69.40
1766;DHT22;880;52.452;8.656;2022-08-19T16:19:28;30.50;68.10
1766;DHT22;880;52.452;8.656;2022-08-19T16:21:56;30.30;68.70
1766;DHT22;880;52.452;8.656;2022-08-19T16:24:25;30.20;68.60
1766;DHT22;880;52.452;8.656;2022-08-19T16:26:54;30.00;69.90
1766;DHT22;880;52.452;8.656;2022-08-19T16:29:22;30.00;69.70
1766;DHT22;880;52.452;8.656;2022-08-19T16:32:08;29.90;69.60
1766;DHT22;880;52.452;8.656;2022-08-19T16:34:37;29.80;69.90
1766;DHT22;880;52.452;8.656;2022-08-19T16:37:08;29.90;69.80
1766;DHT22;880;52.452;8.656;2022-08-19T16:39:35;29.90;70.00
1766;DHT22;880;52.452;8.656;2022-08-19T16:42:04;29.60;71.00
1766;DHT22;880;52.452;8.656;2022-08-19T16:44:33;29.60;70.90
1766;DHT22;880;52.452;8.656;2022-08-19T16:47:01;29.70;70.80
1766;DHT22;880;52.452;8.656;2022-08-19T16:49:38;29.70;69.90